sensor_id;sensor_type;location;lat;lon;timestamp;P1;durP1;ratioP1;P2;durP2;ratioP2
75718;SDS011;64340;48.534;-3.036;2022-11-20T00:01:25;2.03;;;0.82;;
75718;SDS011;64340;48.534;-3.036;2022-11-20T00:03:52;3.03;;;1.10;;
75718;SDS011;64340;48.534;-3.036;2022-11-20T00:06:20;3.15;;;1.10;;
75718;SDS011;64340;48.534;-3.036;2022-11-20T00:08:47;2.92;;;1.20;;
75718;SDS011;64340;48.534;-3.036;2022-11-20T00:11:14;1.73;;;0.90;;
75718;SDS011;64340;48.534;-3.036;2022-11-20T00:13:42;2.13;;;0.93;;
75718;SDS011;64340;48.534;-3.036;2022-11-20T00:16:13;2.33;;;1.10;;
75718;SDS011;64340;48.534;-3.036;2022-11-20T00:18:40;1.92;;;1.00;;
75718;SDS011;64340;48.534;-3.036;2022-11-20T00:21:11;2.28;;;0.90;;
75718;SDS011;64340;48.534;-3.036;2022-11-20T00:23:39;1.85;;;0.88;;
75718;SDS011;64340;48.534;-3.036;2022-11-20T00:26:09;2.00;;;1.05;;
75718;SDS011;64340;48.534;-3.036;2022-11-20T00:28:36;3.83;;;1.00;;
75718;SDS011;64340;48.534;-3.036;2022-11-20T00:31:03;2.70;;;1.05;;
75718;SDS011;64340;48.534;-3.036;2022-11-20T00:33:30;3.28;;;1.38;;
75718;SDS011;64340;48.534;-3.036;2022-11-20T00:36:00;2.60;;;1.10;;
75718;SDS011;64340;48.534;-3.036;2022-11-20T00:38:27;2.25;;;1.02;;
75718;SDS011;64340;48.534;-3.036;2022-11-20T00:40:56;3.00;;;1.00;;
75718;SDS011;64340;48.534;-3.036;2022-11-20T00:43:23;1.80;;;0.90;;
75718;SDS011;64340;48.534;-3.036;2022-11-20T00:45:49;1.63;;;0.90;;
75718;SDS011;64340;48.534;-3.036;2022-11-20T00:48:15;2.85;;;1.00;;
75718;SDS011;64340;48.534;-3.036;2022-11-20T00:50:41;3.92;;;1.10;;
75718;SDS011;64340;48.534;-3.036;2022-11-20T00:53:07;1.98;;;1.08;;
75718;SDS011;64340;48.534;-3.036;2022-11-20T00:55:33;2.08;;;0.90;;
75718;SDS011;64340;48.534;-3.036;2022-11-20T00:57:58;2.00;;;1.00;;
75718;SDS011;64340;48.534;-3.036;2022-11-20T01:00:24;2.28;;;0.95;;
75718;SDS011;64340;48.534;-3.036;2022-11-20T01:02:50;2.83;;;1.17;;
75718;SDS011;64340;48.534;-3.036;2022-11-20T01:05:15;2.83;;;1.05;;
75718;SDS011;64340;48.534;-3.036;2022-11-20T01:07:41;2.30;;;0.90;;
75718;SDS011;64340;48.534;-3.036;2022-11-20T01:10:07;1.65;;;0.80;;
75718;SDS011;64340;48.534;-3.036;2022-11-20T01:12:33;2.42;;;0.85;;
75718;SDS011;64340;48.534;-3.036;2022-11-20T01:14:59;2.17;;;0.98;;
75718;SDS011;64340;48.534;-3.036;2022-11-20T01:17:24;1.80;;;0.80;;
75718;SDS011;64340;48.534;-3.036;2022-11-20T01:19:50;2.63;;;0.80;;
75718;SDS011;64340;48.534;-3.036;2022-11-20T01:22:16;2.00;;;0.73;;
75718;SDS011;64340;48.534;-3.036;2022-11-20T01:24:42;2.85;;;1.15;;
75718;SDS011;64340;48.534;-3.036;2022-11-20T01:27:07;2.50;;;1.05;;
75718;SDS011;64340;48.534;-3.036;2022-11-20T01:29:33;3.67;;;0.90;;
75718;SDS011;64340;48.534;-3.036;2022-11-20T01:31:59;1.95;;;0.77;;
75718;SDS011;64340;48.534;-3.036;2022-11-20T01:34:25;1.60;;;0.70;;
75718;SDS011;64340;48.534;-3.036;2022-11-20T01:36:51;2.25;;;0.88;;
75718;SDS011;64340;48.534;-3.036;2022-11-20T01:39:21;2.38;;;0.70;;
75718;SDS011;64340;48.534;-3.036;2022-11-20T01:41:49;1.85;;;0.68;;
75718;SDS011;64340;48.534;-3.036;2022-11-20T01:47:16;1.60;;;0.60;;
75718;SDS011;64340;48.534;-3.036;2022-11-20T01:50:05;1.70;;;0.82;;
75718;SDS011;64340;48.534;-3.036;2022-11-20T01:52:39;2.03;;;0.98;;
75718;SDS011;64340;48.534;-3.036;2022-11-20T01:55:15;1.80;;;0.80;;
75718;SDS011;64340;48.534;-3.036;2022-11-20T01:57:45;1.77;;;0.90;;
75718;SDS011;64340;48.534;-3.036;2022-11-20T02:00:13;2.15;;;0.70;;
75718;SDS011;64340;48.534;-3.036;2022-11-20T02:02:42;1.48;;;0.70;;
75718;SDS011;64340;48.534;-3.036;2022-11-20T02:05:56;2.47;;;0.70;;
75718;SDS011;64340;48.534;-3.036;2022-11-20T02:08:08;2.90;;;0.88;;
75718;SDS011;64340;48.534;-3.036;2022-11-20T02:10:34;2.03;;;0.80;;
75718;SDS011;64340;48.534;-3.036;2022-11-20T02:13:00;1.55;;;0.63;;
75718;SDS011;64340;48.534;-3.036;2022-11-20T02:15:44;2.40;;;0.70;;
75718;SDS011;64340;48.534;-3.036;2022-11-20T02:18:11;2.83;;;0.63;;
75718;SDS011;64340;48.534;-3.036;2022-11-20T02:20:40;1.50;;;0.52;;
75718;SDS011;64340;48.534;-3.036;2022-11-20T02:26:04;1.58;;;0.60;;
75718;SDS011;64340;48.534;-3.036;2022-11-20T02:28:34;1.67;;;0.70;;
75718;SDS011;64340;48.534;-3.036;2022-11-20T02:31:00;2.00;;;0.70;;
75718;SDS011;64340;48.534;-3.036;2022-11-20T02:33:26;1.65;;;0.70;;
75718;SDS011;64340;48.534;-3.036;2022-11-20T02:35:52;1.40;;;0.70;;
75718;SDS011;64340;48.534;-3.036;2022-11-20T02:38:17;2.33;;;0.68;;
75718;SDS011;64340;48.534;-3.036;2022-11-20T02:40:43;1.75;;;0.60;;
75718;SDS011;64340;48.534;-3.036;2022-11-20T02:43:09;1.90;;;0.63;;
75718;SDS011;64340;48.534;-3.036;2022-11-20T02:45:35;1.50;;;0.60;;
75718;SDS011;64340;48.534;-3.036;2022-11-20T02:48:03;1.05;;;0.50;;
75718;SDS011;64340;48.534;-3.036;2022-11-20T02:50:30;1.70;;;0.60;;
75718;SDS011;64340;48.534;-3.036;2022-11-20T02:52:56;1.08;;;0.63;;
75718;SDS011;64340;48.534;-3.036;2022-11-20T02:55:21;1.92;;;0.60;;
75718;SDS011;64340;48.534;-3.036;2022-11-20T02:57:47;1.77;;;0.50;;
75718;SDS011;64340;48.534;-3.036;2022-11-20T03:00:13;2.25;;;0.75;;
75718;SDS011;64340;48.534;-3.036;2022-11-20T03:02:39;1.45;;;0.60;;
75718;SDS011;64340;48.534;-3.036;2022-11-20T03:05:05;1.50;;;0.47;;
75718;SDS011;64340;48.534;-3.036;2022-11-20T03:07:31;1.70;;;0.60;;
75718;SDS011;64340;48.534;-3.036;2022-11-20T03:09:57;1.77;;;0.43;;
75718;SDS011;64340;48.534;-3.036;2022-11-20T03:12:23;1.88;;;0.40;;
75718;SDS011;64340;48.534;-3.036;2022-11-20T03:14:48;1.48;;;0.50;;
75718;SDS011;64340;48.534;-3.036;2022-11-20T03:17:15;1.60;;;0.65;;
75718;SDS011;64340;48.534;-3.036;2022-11-20T03:19:41;1.40;;;0.43;;
75718;SDS011;64340;48.534;-3.036;2022-11-20T03:22:07;1.80;;;0.50;;
75718;SDS011;64340;48.534;-3.036;2022-11-20T03:24:33;1.13;;;0.50;;
75718;SDS011;64340;48.534;-3.036;2022-11-20T03:26:58;2.22;;;0.60;;
75718;SDS011;64340;48.534;-3.036;2022-11-20T03:29:24;1.38;;;0.45;;
75718;SDS011;64340;48.534;-3.036;2022-11-20T03:31:50;0.50;;;0.20;;
75718;SDS011;64340;48.534;-3.036;2022-11-20T03:34:16;0.77;;;0.30;;
75718;SDS011;64340;48.534;-3.036;2022-11-20T03:36:42;1.48;;;0.43;;
75718;SDS011;64340;48.534;-3.036;2022-11-20T03:39:08;1.30;;;0.50;;
75718;SDS011;64340;48.534;-3.036;2022-11-20T03:41:39;1.05;;;0.40;;
75718;SDS011;64340;48.534;-3.036;2022-11-20T03:44:07;1.70;;;0.50;;
75718;SDS011;64340;48.534;-3.036;2022-11-20T03:46:34;0.75;;;0.30;;
75718;SDS011;64340;48.534;-3.036;2022-11-20T03:49:00;0.50;;;0.20;;
75718;SDS011;64340;48.534;-3.036;2022-11-20T03:51:27;1.30;;;0.50;;
75718;SDS011;64340;48.534;-3.036;2022-11-20T03:53:55;1.45;;;0.30;;
75718;SDS011;64340;48.534;-3.036;2022-11-20T03:56:25;2.03;;;0.52;;
75718;SDS011;64340;48.534;-3.036;2022-11-20T03:58:52;0.95;;;0.40;;
75718;SDS011;64340;48.534;-3.036;2022-11-20T04:01:20;1.02;;;0.40;;
75718;SDS011;64340;48.534;-3.036;2022-11-20T04:03:47;0.85;;;0.32;;
75718;SDS011;64340;48.534;-3.036;2022-11-20T04:06:15;0.98;;;0.32;;
75718;SDS011;64340;48.534;-3.036;2022-11-20T04:08:46;0.70;;;0.40;;
75718;SDS011;64340;48.534;-3.036;2022-11-20T04:11:13;1.33;;;0.45;;
75718;SDS011;64340;48.534;-3.036;2022-11-20T04:13:48;1.08;;;0.40;;
75718;SDS011;64340;48.534;-3.036;2022-11-20T04:16:18;0.68;;;0.40;;
75718;SDS011;64340;48.534;-3.036;2022-11-20T04:18:45;1.17;;;0.60;;
75718;SDS011;64340;48.534;-3.036;2022-11-20T04:21:11;0.57;;;0.22;;
75718;SDS011;64340;48.534;-3.036;2022-11-20T04:23:37;0.93;;;0.40;;
75718;SDS011;64340;48.534;-3.036;2022-11-20T04:26:04;0.50;;;0.30;;
75718;SDS011;64340;48.534;-3.036;2022-11-20T04:28:31;0.57;;;0.30;;
75718;SDS011;64340;48.534;-3.036;2022-11-20T04:31:14;1.05;;;0.43;;
75718;SDS011;64340;48.534;-3.036;2022-11-20T04:33:41;1.42;;;0.30;;
75718;SDS011;64340;48.534;-3.036;2022-11-20T04:36:07;1.48;;;0.40;;
75718;SDS011;64340;48.534;-3.036;2022-11-20T04:38:37;0.88;;;0.30;;
75718;SDS011;64340;48.534;-3.036;2022-11-20T04:41:04;1.67;;;0.40;;
75718;SDS011;64340;48.534;-3.036;2022-11-20T04:43:31;2.97;;;0.40;;
75718;SDS011;64340;48.534;-3.036;2022-11-20T04:45:58;1.42;;;0.32;;
75718;SDS011;64340;48.534;-3.036;2022-11-20T04:48:25;1.63;;;0.38;;
75718;SDS011;64340;48.534;-3.036;2022-11-20T04:50:51;1.75;;;0.57;;
75718;SDS011;64340;48.534;-3.036;2022-11-20T04:53:17;1.95;;;0.40;;
75718;SDS011;64340;48.534;-3.036;2022-11-20T04:55:44;1.58;;;0.40;;
75718;SDS011;64340;48.534;-3.036;2022-11-20T04:58:10;2.42;;;0.55;;
75718;SDS011;64340;48.534;-3.036;2022-11-20T05:00:36;2.78;;;0.73;;
75718;SDS011;64340;48.534;-3.036;2022-11-20T05:03:02;1.67;;;0.40;;
75718;SDS011;64340;48.534;-3.036;2022-11-20T05:05:28;1.55;;;0.47;;
75718;SDS011;64340;48.534;-3.036;2022-11-20T05:07:57;2.15;;;0.52;;
75718;SDS011;64340;48.534;-3.036;2022-11-20T05:12:49;2.17;;;0.50;;
75718;SDS011;64340;48.534;-3.036;2022-11-20T05:15:15;4.10;;;0.55;;
75718;SDS011;64340;48.534;-3.036;2022-11-20T05:17:41;2.53;;;0.50;;
75718;SDS011;64340;48.534;-3.036;2022-11-20T05:20:15;2.28;;;0.50;;
75718;SDS011;64340;48.534;-3.036;2022-11-20T05:22:41;1.88;;;0.60;;
75718;SDS011;64340;48.534;-3.036;2022-11-20T05:25:08;2.97;;;0.40;;
75718;SDS011;64340;48.534;-3.036;2022-11-20T05:27:34;1.95;;;0.47;;
75718;SDS011;64340;48.534;-3.036;2022-11-20T05:29:59;2.17;;;0.40;;
75718;SDS011;64340;48.534;-3.036;2022-11-20T05:32:28;2.85;;;0.60;;
75718;SDS011;64340;48.534;-3.036;2022-11-20T05:34:54;3.35;;;0.57;;
75718;SDS011;64340;48.534;-3.036;2022-11-20T05:37:20;2.50;;;0.52;;
75718;SDS011;64340;48.534;-3.036;2022-11-20T05:39:45;2.72;;;0.38;;
75718;SDS011;64340;48.534;-3.036;2022-11-20T05:42:11;1.70;;;0.40;;
75718;SDS011;64340;48.534;-3.036;2022-11-20T05:44:56;2.28;;;0.50;;
75718;SDS011;64340;48.534;-3.036;2022-11-20T05:47:22;1.85;;;0.40;;
75718;SDS011;64340;48.534;-3.036;2022-11-20T05:49:48;3.63;;;0.70;;
75718;SDS011;64340;48.534;-3.036;2022-11-20T05:52:14;2.38;;;0.50;;
75718;SDS011;64340;48.534;-3.036;2022-11-20T05:54:40;2.25;;;0.60;;
75718;SDS011;64340;48.534;-3.036;2022-11-20T05:57:05;3.47;;;0.68;;
75718;SDS011;64340;48.534;-3.036;2022-11-20T05:59:31;1.42;;;0.50;;
75718;SDS011;64340;48.534;-3.036;2022-11-20T06:01:57;2.17;;;0.45;;
75718;SDS011;64340;48.534;-3.036;2022-11-20T06:04:22;3.53;;;0.70;;
75718;SDS011;64340;48.534;-3.036;2022-11-20T06:06:48;5.07;;;0.93;;
75718;SDS011;64340;48.534;-3.036;2022-11-20T06:09:14;3.40;;;0.68;;
75718;SDS011;64340;48.534;-3.036;2022-11-20T06:11:40;4.93;;;0.82;;
75718;SDS011;64340;48.534;-3.036;2022-11-20T06:14:05;1.98;;;0.52;;
75718;SDS011;64340;48.534;-3.036;2022-11-20T06:16:31;2.53;;;0.60;;
75718;SDS011;64340;48.534;-3.036;2022-11-20T06:18:57;3.78;;;0.63;;
75718;SDS011;64340;48.534;-3.036;2022-11-20T06:21:23;4.78;;;0.90;;
75718;SDS011;64340;48.534;-3.036;2022-11-20T06:23:49;3.97;;;0.80;;
75718;SDS011;64340;48.534;-3.036;2022-11-20T06:26:18;4.95;;;1.10;;
75718;SDS011;64340;48.534;-3.036;2022-11-20T06:28:46;4.10;;;0.98;;
75718;SDS011;64340;48.534;-3.036;2022-11-20T06:31:13;4.05;;;0.80;;
75718;SDS011;64340;48.534;-3.036;2022-11-20T06:33:40;4.18;;;0.82;;
75718;SDS011;64340;48.534;-3.036;2022-11-20T06:36:06;4.68;;;0.90;;
75718;SDS011;64340;48.534;-3.036;2022-11-20T06:38:34;4.97;;;0.88;;
75718;SDS011;64340;48.534;-3.036;2022-11-20T06:40:59;4.25;;;1.17;;
75718;SDS011;64340;48.534;-3.036;2022-11-20T06:43:25;4.82;;;0.80;;
75718;SDS011;64340;48.534;-3.036;2022-11-20T06:45:54;5.03;;;1.05;;
75718;SDS011;64340;48.534;-3.036;2022-11-20T06:48:20;3.97;;;0.93;;
75718;SDS011;64340;48.534;-3.036;2022-11-20T06:50:46;7.18;;;1.48;;
75718;SDS011;64340;48.534;-3.036;2022-11-20T06:53:12;6.40;;;1.20;;
75718;SDS011;64340;48.534;-3.036;2022-11-20T06:55:41;3.60;;;0.73;;
75718;SDS011;64340;48.534;-3.036;2022-11-20T06:58:11;3.72;;;0.85;;
75718;SDS011;64340;48.534;-3.036;2022-11-20T07:00:38;3.53;;;0.90;;
75718;SDS011;64340;48.534;-3.036;2022-11-20T07:03:04;4.88;;;1.02;;
75718;SDS011;64340;48.534;-3.036;2022-11-20T07:05:30;3.78;;;0.90;;
75718;SDS011;64340;48.534;-3.036;2022-11-20T07:07:56;6.45;;;1.15;;
75718;SDS011;64340;48.534;-3.036;2022-11-20T07:10:22;6.00;;;1.20;;
75718;SDS011;64340;48.534;-3.036;2022-11-20T07:12:49;6.10;;;1.33;;
75718;SDS011;64340;48.534;-3.036;2022-11-20T07:15:16;4.57;;;0.98;;
75718;SDS011;64340;48.534;-3.036;2022-11-20T07:17:42;6.55;;;1.30;;
75718;SDS011;64340;48.534;-3.036;2022-11-20T07:20:08;5.40;;;1.35;;
75718;SDS011;64340;48.534;-3.036;2022-11-20T07:22:34;4.78;;;1.27;;
75718;SDS011;64340;48.534;-3.036;2022-11-20T07:25:00;5.43;;;1.30;;
75718;SDS011;64340;48.534;-3.036;2022-11-20T07:27:26;5.15;;;1.17;;
75718;SDS011;64340;48.534;-3.036;2022-11-20T07:29:52;4.28;;;1.02;;
75718;SDS011;64340;48.534;-3.036;2022-11-20T07:32:18;4.78;;;1.50;;
75718;SDS011;64340;48.534;-3.036;2022-11-20T07:34:44;6.10;;;1.27;;
75718;SDS011;64340;48.534;-3.036;2022-11-20T07:37:10;4.95;;;0.95;;
75718;SDS011;64340;48.534;-3.036;2022-11-20T07:39:35;6.82;;;1.50;;
75718;SDS011;64340;48.534;-3.036;2022-11-20T07:42:01;6.50;;;1.40;;
75718;SDS011;64340;48.534;-3.036;2022-11-20T07:44:27;6.25;;;1.65;;
75718;SDS011;64340;48.534;-3.036;2022-11-20T07:46:53;7.03;;;1.35;;
75718;SDS011;64340;48.534;-3.036;2022-11-20T07:49:18;6.53;;;1.58;;
75718;SDS011;64340;48.534;-3.036;2022-11-20T07:51:44;6.53;;;1.58;;
75718;SDS011;64340;48.534;-3.036;2022-11-20T07:54:10;4.75;;;1.42;;
75718;SDS011;64340;48.534;-3.036;2022-11-20T07:56:36;4.75;;;1.17;;
75718;SDS011;64340;48.534;-3.036;2022-11-20T07:59:01;5.10;;;1.20;;
75718;SDS011;64340;48.534;-3.036;2022-11-20T08:01:28;7.20;;;1.38;;
75718;SDS011;64340;48.534;-3.036;2022-11-20T08:03:54;5.18;;;1.38;;
75718;SDS011;64340;48.534;-3.036;2022-11-20T08:06:20;5.72;;;1.40;;
75718;SDS011;64340;48.534;-3.036;2022-11-20T08:08:45;7.45;;;1.45;;
75718;SDS011;64340;48.534;-3.036;2022-11-20T08:11:11;3.85;;;1.00;;
75718;SDS011;64340;48.534;-3.036;2022-11-20T08:13:56;5.57;;;1.27;;
75718;SDS011;64340;48.534;-3.036;2022-11-20T08:16:36;8.63;;;1.38;;
75718;SDS011;64340;48.534;-3.036;2022-11-20T08:19:03;6.20;;;1.40;;
75718;SDS011;64340;48.534;-3.036;2022-11-20T08:21:29;7.00;;;1.50;;
75718;SDS011;64340;48.534;-3.036;2022-11-20T08:23:56;4.57;;;1.27;;
75718;SDS011;64340;48.534;-3.036;2022-11-20T08:26:22;5.70;;;1.40;;
75718;SDS011;64340;48.534;-3.036;2022-11-20T08:28:48;9.25;;;2.00;;
75718;SDS011;64340;48.534;-3.036;2022-11-20T08:31:17;8.00;;;1.92;;
75718;SDS011;64340;48.534;-3.036;2022-11-20T08:33:43;8.75;;;1.80;;
75718;SDS011;64340;48.534;-3.036;2022-11-20T08:36:09;6.65;;;1.65;;
75718;SDS011;64340;48.534;-3.036;2022-11-20T08:38:34;12.85;;;2.83;;
75718;SDS011;64340;48.534;-3.036;2022-11-20T08:41:01;7.07;;;1.80;;
75718;SDS011;64340;48.534;-3.036;2022-11-20T08:43:47;8.57;;;2.10;;
75718;SDS011;64340;48.534;-3.036;2022-11-20T08:46:13;6.30;;;1.85;;
75718;SDS011;64340;48.534;-3.036;2022-11-20T08:48:39;7.50;;;2.25;;
75718;SDS011;64340;48.534;-3.036;2022-11-20T08:51:05;12.07;;;1.77;;
75718;SDS011;64340;48.534;-3.036;2022-11-20T08:53:31;8.57;;;2.30;;
75718;SDS011;64340;48.534;-3.036;2022-11-20T08:55:57;8.43;;;2.88;;
75718;SDS011;64340;48.534;-3.036;2022-11-20T08:58:23;9.60;;;1.98;;
75718;SDS011;64340;48.534;-3.036;2022-11-20T09:00:49;6.72;;;1.92;;
75718;SDS011;64340;48.534;-3.036;2022-11-20T09:03:15;6.75;;;2.20;;
75718;SDS011;64340;48.534;-3.036;2022-11-20T09:05:41;7.53;;;2.03;;
75718;SDS011;64340;48.534;-3.036;2022-11-20T09:08:07;9.13;;;2.25;;
75718;SDS011;64340;48.534;-3.036;2022-11-20T09:10:33;8.27;;;2.10;;
